Carmen, Arizona
Current Conditions -  °F | °C
As of 6:54 PM on Friday 31 Oct 2014 (Local Time) from KOLS Reporting Station
Clear Clear  
Wind Chill: 70°   Ceiling: Unl
Heat Index: 70°   Visibility: 10mi
Dew Point: 48°   Wind: 5mph
Humidity: 46%   Direction: 150°SSE
Pressure: 30.01"   Gusts: NA
Location:  31.6134°N, 110.959°W
Report Text: KOLS 010154Z AUTO 15004KT 10SM CLR 21/09 A3001 RMK AO2 SLP109 T02110089
Loading
Personal Weather Stations






























Interactive Weather Map New forecast layout! Learn more

10-Day Weather Forecast

Advertisements
Track Severe Weather on mobile